sensor_id;sensor_type;location;lat;lon;timestamp;pressure;altitude;pressure_sealevel;temperature;humidity
80414;BME280;69758;52.580;13.068;2024-02-14T00:01:57;101664.53;;;9.08;32.20
80414;BME280;69758;52.580;13.068;2024-02-14T00:04:22;101664.45;;;9.17;32.03
80414;BME280;69758;52.580;13.068;2024-02-14T00:06:48;101667.03;;;9.18;31.93
80414;BME280;69758;52.580;13.068;2024-02-14T00:09:13;101666.75;;;9.14;31.94
80414;BME280;69758;52.580;13.068;2024-02-14T00:11:39;101666.95;;;8.90;31.88
80414;BME280;69758;52.580;13.068;2024-02-14T00:14:04;101664.94;;;9.13;31.80
80414;BME280;69758;52.580;13.068;2024-02-14T00:16:30;101664.13;;;9.11;31.77
80414;BME280;69758;52.580;13.068;2024-02-14T00:18:55;101659.90;;;9.31;31.80
80414;BME280;69758;52.580;13.068;2024-02-14T00:21:20;101659.58;;;9.06;31.77
80414;BME280;69758;52.580;13.068;2024-02-14T00:23:45;101663.00;;;8.80;31.76
80414;BME280;69758;52.580;13.068;2024-02-14T00:26:11;101664.81;;;9.01;31.80
80414;BME280;69758;52.580;13.068;2024-02-14T00:28:36;101664.49;;;8.99;31.79
80414;BME280;69758;52.580;13.068;2024-02-14T00:31:02;101665.29;;;8.96;31.82
80414;BME280;69758;52.580;13.068;2024-02-14T00:33:27;101667.04;;;8.96;31.80
80414;BME280;69758;52.580;13.068;2024-02-14T00:35:52;101665.60;;;8.97;31.80
80414;BME280;69758;52.580;13.068;2024-02-14T00:38:18;101669.08;;;8.96;31.86
80414;BME280;69758;52.580;13.068;2024-02-14T00:40:43;101672.97;;;8.93;31.90
80414;BME280;69758;52.580;13.068;2024-02-14T00:43:09;101675.98;;;8.90;32.01
80414;BME280;69758;52.580;13.068;2024-02-14T00:45:35;101676.01;;;8.89;32.10
80414;BME280;69758;52.580;13.068;2024-02-14T00:48:01;101671.39;;;9.38;32.09
80414;BME280;69758;52.580;13.068;2024-02-14T00:50:25;101671.82;;;8.91;32.09
80414;BME280;69758;52.580;13.068;2024-02-14T00:52:50;101674.81;;;8.89;32.18
80414;BME280;69758;52.580;13.068;2024-02-14T00:55:16;101677.95;;;9.12;32.19
80414;BME280;69758;52.580;13.068;2024-02-14T00:57:41;101678.49;;;8.87;32.19
80414;BME280;69758;52.580;13.068;2024-02-14T01:00:07;101670.31;;;8.89;32.19
80414;BME280;69758;52.580;13.068;2024-02-14T01:02:32;101664.99;;;8.69;32.16
80414;BME280;69758;52.580;13.068;2024-02-14T01:04:57;101663.61;;;9.40;32.13
80414;BME280;69758;52.580;13.068;2024-02-14T01:07:23;101661.67;;;8.89;32.15
80414;BME280;69758;52.580;13.068;2024-02-14T01:09:49;101659.88;;;9.11;32.23
80414;BME280;69758;52.580;13.068;2024-02-14T01:12:14;101659.83;;;8.90;32.21
80414;BME280;69758;52.580;13.068;2024-02-14T01:14:39;101658.22;;;8.90;32.22
80414;BME280;69758;52.580;13.068;2024-02-14T01:17:05;101657.67;;;9.12;32.29
80414;BME280;69758;52.580;13.068;2024-02-14T01:19:30;101659.38;;;8.89;32.30
80414;BME280;69758;52.580;13.068;2024-02-14T01:21:55;101657.58;;;8.90;32.24
80414;BME280;69758;52.580;13.068;2024-02-14T01:24:21;101651.55;;;9.14;32.25
80414;BME280;69758;52.580;13.068;2024-02-14T01:26:47;101649.95;;;8.87;32.26
80414;BME280;69758;52.580;13.068;2024-02-14T01:29:13;101645.71;;;8.84;32.33
80414;BME280;69758;52.580;13.068;2024-02-14T01:31:38;101643.00;;;8.85;32.33
80414;BME280;69758;52.580;13.068;2024-02-14T01:34:04;101639.02;;;9.09;32.35
80414;BME280;69758;52.580;13.068;2024-02-14T01:36:30;101638.01;;;9.11;32.34
80414;BME280;69758;52.580;13.068;2024-02-14T01:38:55;101639.01;;;8.87;32.39
80414;BME280;69758;52.580;13.068;2024-02-14T01:41:20;101637.18;;;8.94;32.32
80414;BME280;69758;52.580;13.068;2024-02-14T01:43:45;101635.56;;;8.95;32.32
80414;BME280;69758;52.580;13.068;2024-02-14T01:46:11;101632.09;;;8.96;32.32
80414;BME280;69758;52.580;13.068;2024-02-14T01:48:36;101633.36;;;8.95;32.38
80414;BME280;69758;52.580;13.068;2024-02-14T01:51:03;101631.73;;;8.94;32.43
80414;BME280;69758;52.580;13.068;2024-02-14T01:53:28;101627.98;;;8.92;32.54
80414;BME280;69758;52.580;13.068;2024-02-14T01:55:53;101623.07;;;8.94;32.56
80414;BME280;69758;52.580;13.068;2024-02-14T01:58:18;101625.67;;;8.95;32.49
80414;BME280;69758;52.580;13.068;2024-02-14T02:00:44;101623.19;;;8.94;32.52
80414;BME280;69758;52.580;13.068;2024-02-14T02:03:09;101622.23;;;8.96;32.57
80414;BME280;69758;52.580;13.068;2024-02-14T02:05:35;101617.95;;;8.98;32.52
80414;BME280;69758;52.580;13.068;2024-02-14T02:08:00;101613.60;;;9.41;32.59
80414;BME280;69758;52.580;13.068;2024-02-14T02:10:25;101613.49;;;8.91;32.68
80414;BME280;69758;52.580;13.068;2024-02-14T02:12:51;101615.02;;;8.94;32.65
80414;BME280;69758;52.580;13.068;2024-02-14T02:15:16;101617.55;;;8.93;32.68
80414;BME280;69758;52.580;13.068;2024-02-14T02:17:42;101615.64;;;8.98;32.68
80414;BME280;69758;52.580;13.068;2024-02-14T02:20:08;101612.28;;;8.98;32.62
80414;BME280;69758;52.580;13.068;2024-02-14T02:22:33;101611.40;;;8.74;32.60
80414;BME280;69758;52.580;13.068;2024-02-14T02:24:58;101607.44;;;8.97;32.61
80414;BME280;69758;52.580;13.068;2024-02-14T02:27:23;101601.69;;;9.20;32.60
80414;BME280;69758;52.580;13.068;2024-02-14T02:29:48;101595.07;;;8.95;32.61
80414;BME280;69758;52.580;13.068;2024-02-14T02:32:14;101591.58;;;8.94;32.60
80414;BME280;69758;52.580;13.068;2024-02-14T02:34:39;101592.58;;;8.90;32.62
80414;BME280;69758;52.580;13.068;2024-02-14T02:37:05;101588.52;;;8.91;32.63
80414;BME280;69758;52.580;13.068;2024-02-14T02:39:31;101587.24;;;8.92;32.59
80414;BME280;69758;52.580;13.068;2024-02-14T02:41:56;101587.46;;;8.89;32.61
80414;BME280;69758;52.580;13.068;2024-02-14T02:44:21;101588.73;;;8.93;32.59
80414;BME280;69758;52.580;13.068;2024-02-14T02:46:47;101590.63;;;8.95;32.63
80414;BME280;69758;52.580;13.068;2024-02-14T02:49:12;101593.46;;;9.46;32.62
80414;BME280;69758;52.580;13.068;2024-02-14T02:51:38;101594.43;;;9.01;32.61
80414;BME280;69758;52.580;13.068;2024-02-14T02:54:03;101590.73;;;9.09;32.59
80414;BME280;69758;52.580;13.068;2024-02-14T02:56:30;101590.32;;;9.13;32.57
80414;BME280;69758;52.580;13.068;2024-02-14T02:58:54;101587.97;;;9.15;32.59
80414;BME280;69758;52.580;13.068;2024-02-14T03:01:19;101582.26;;;9.20;32.48
80414;BME280;69758;52.580;13.068;2024-02-14T03:03:45;101577.47;;;9.19;32.44
80414;BME280;69758;52.580;13.068;2024-02-14T03:06:11;101577.02;;;9.13;32.47
80414;BME280;69758;52.580;13.068;2024-02-14T03:08:36;101577.23;;;9.07;32.58
80414;BME280;69758;52.580;13.068;2024-02-14T03:11:04;101576.60;;;9.06;32.70
80414;BME280;69758;52.580;13.068;2024-02-14T03:13:27;101573.20;;;9.10;32.68
80414;BME280;69758;52.580;13.068;2024-02-14T03:15:52;101568.55;;;9.10;32.73
80414;BME280;69758;52.580;13.068;2024-02-14T03:18:18;101566.98;;;9.08;32.70
80414;BME280;69758;52.580;13.068;2024-02-14T03:20:43;101566.36;;;9.04;32.79
80414;BME280;69758;52.580;13.068;2024-02-14T03:23:09;101567.26;;;9.02;32.85
80414;BME280;69758;52.580;13.068;2024-02-14T03:25:40;101564.48;;;9.01;32.92
80414;BME280;69758;52.580;13.068;2024-02-14T03:28:00;101560.46;;;9.03;32.95
80414;BME280;69758;52.580;13.068;2024-02-14T03:30:25;101551.87;;;9.05;32.96
80414;BME280;69758;52.580;13.068;2024-02-14T03:32:50;101549.70;;;9.10;33.05
80414;BME280;69758;52.580;13.068;2024-02-14T03:35:16;101548.91;;;9.13;33.04
80414;BME280;69758;52.580;13.068;2024-02-14T03:37:41;101545.43;;;9.14;33.04
80414;BME280;69758;52.580;13.068;2024-02-14T03:40:08;101539.15;;;9.18;33.06
80414;BME280;69758;52.580;13.068;2024-02-14T03:42:32;101533.65;;;8.73;33.11
80414;BME280;69758;52.580;13.068;2024-02-14T03:44:57;101526.96;;;9.25;33.05
80414;BME280;69758;52.580;13.068;2024-02-14T03:47:23;101527.82;;;9.27;33.05
80414;BME280;69758;52.580;13.068;2024-02-14T03:49:48;101536.89;;;9.29;33.10
80414;BME280;69758;52.580;13.068;2024-02-14T03:52:19;101540.31;;;9.32;33.10
80414;BME280;69758;52.580;13.068;2024-02-14T03:54:39;101541.83;;;9.12;33.12
80414;BME280;69758;52.580;13.068;2024-02-14T03:57:05;101543.24;;;9.38;33.17
80414;BME280;69758;52.580;13.068;2024-02-14T03:59:31;101542.74;;;9.42;33.16
80414;BME280;69758;52.580;13.068;2024-02-14T04:01:56;101544.05;;;9.42;33.19
80414;BME280;69758;52.580;13.068;2024-02-14T04:04:22;101542.96;;;9.49;33.22
80414;BME280;69758;52.580;13.068;2024-02-14T04:06:47;101539.51;;;9.52;33.23
80414;BME280;69758;52.580;13.068;2024-02-14T04:09:12;101544.44;;;9.27;33.30
80414;BME280;69758;52.580;13.068;2024-02-14T04:11:37;101544.94;;;9.53;33.31
80414;BME280;69758;52.580;13.068;2024-02-14T04:14:03;101545.15;;;9.55;33.36
80414;BME280;69758;52.580;13.068;2024-02-14T04:16:29;101545.32;;;9.60;33.34
80414;BME280;69758;52.580;13.068;2024-02-14T04:18:54;101546.21;;;9.40;33.35
80414;BME280;69758;52.580;13.068;2024-02-14T04:21:20;101545.31;;;9.41;33.35
80414;BME280;69758;52.580;13.068;2024-02-14T04:23:44;101540.54;;;9.70;33.33
80414;BME280;69758;52.580;13.068;2024-02-14T04:26:10;101541.76;;;9.75;33.33
80414;BME280;69758;52.580;13.068;2024-02-14T04:28:35;101541.92;;;9.77;33.30
80414;BME280;69758;52.580;13.068;2024-02-14T04:31:01;101542.23;;;9.56;33.28
80414;BME280;69758;52.580;13.068;2024-02-14T04:33:26;101542.22;;;9.81;33.28
80414;BME280;69758;52.580;13.068;2024-02-14T04:35:52;101538.38;;;9.59;33.32
80414;BME280;69758;52.580;13.068;2024-02-14T04:38:17;101538.84;;;9.60;33.34
80414;BME280;69758;52.580;13.068;2024-02-14T04:40:42;101536.10;;;9.68;33.28
80414;BME280;69758;52.580;13.068;2024-02-14T04:43:07;101534.77;;;9.92;33.27
80414;BME280;69758;52.580;13.068;2024-02-14T04:45:33;101530.99;;;9.23;33.25
80414;BME280;69758;52.580;13.068;2024-02-14T04:47:58;101531.64;;;9.72;33.27
80414;BME280;69758;52.580;13.068;2024-02-14T04:50:24;101531.60;;;9.99;33.23
80414;BME280;69758;52.580;13.068;2024-02-14T04:52:49;101527.07;;;10.01;33.22
80414;BME280;69758;52.580;13.068;2024-02-14T04:55:15;101524.10;;;9.76;33.26
80414;BME280;69758;52.580;13.068;2024-02-14T04:57:40;101519.55;;;9.55;33.28
80414;BME280;69758;52.580;13.068;2024-02-14T05:00:07;101516.79;;;9.81;33.23
80414;BME280;69758;52.580;13.068;2024-02-14T05:02:31;101511.58;;;9.60;33.21
80414;BME280;69758;52.580;13.068;2024-02-14T05:04:56;101501.90;;;9.89;33.17
80414;BME280;69758;52.580;13.068;2024-02-14T05:07:22;101497.89;;;9.70;33.15
80414;BME280;69758;52.580;13.068;2024-02-14T05:09:47;101498.56;;;10.25;33.10
80414;BME280;69758;52.580;13.068;2024-02-14T05:12:12;101494.43;;;10.19;33.22
80414;BME280;69758;52.580;13.068;2024-02-14T05:14:38;101490.81;;;9.69;33.28
80414;BME280;69758;52.580;13.068;2024-02-14T05:17:04;101489.93;;;9.97;33.28
80414;BME280;69758;52.580;13.068;2024-02-14T05:19:29;101489.38;;;10.21;33.29
80414;BME280;69758;52.580;13.068;2024-02-14T05:21:54;101483.52;;;9.72;33.33
80414;BME280;69758;52.580;13.068;2024-02-14T05:24:19;101480.22;;;9.95;33.37
80414;BME280;69758;52.580;13.068;2024-02-14T05:26:45;101477.28;;;9.99;33.37
80414;BME280;69758;52.580;13.068;2024-02-14T05:29:10;101470.55;;;9.98;33.38
80414;BME280;69758;52.580;13.068;2024-02-14T05:31:45;101466.96;;;9.93;33.46
80414;BME280;69758;52.580;13.068;2024-02-14T05:34:01;101463.84;;;9.87;33.53
80414;BME280;69758;52.580;13.068;2024-02-14T05:36:27;101460.64;;;9.77;33.72
80414;BME280;69758;52.580;13.068;2024-02-14T05:38:52;101457.63;;;9.75;33.79
80414;BME280;69758;52.580;13.068;2024-02-14T05:41:18;101457.85;;;9.56;33.76
80414;BME280;69758;52.580;13.068;2024-02-14T05:43:44;101461.14;;;9.76;33.84
80414;BME280;69758;52.580;13.068;2024-02-14T05:46:09;101460.79;;;9.62;33.71
80414;BME280;69758;52.580;13.068;2024-02-14T05:48:35;101461.59;;;9.73;33.58
80414;BME280;69758;52.580;13.068;2024-02-14T05:51:00;101456.55;;;9.78;33.51
80414;BME280;69758;52.580;13.068;2024-02-14T05:53:25;101456.16;;;10.29;33.48
80414;BME280;69758;52.580;13.068;2024-02-14T05:55:51;101454.95;;;9.78;33.56
80414;BME280;69758;52.580;13.068;2024-02-14T05:58:16;101456.29;;;10.10;33.49
80414;BME280;69758;52.580;13.068;2024-02-14T06:00:42;101452.98;;;10.17;33.39
80414;BME280;69758;52.580;13.068;2024-02-14T06:03:07;101452.58;;;9.71;33.36
80414;BME280;69758;52.580;13.068;2024-02-14T06:05:32;101452.30;;;9.50;33.32
80414;BME280;69758;52.580;13.068;2024-02-14T06:07:57;101455.31;;;10.27;33.30
80414;BME280;69758;52.580;13.068;2024-02-14T06:10:23;101455.56;;;10.22;33.35
80414;BME280;69758;52.580;13.068;2024-02-14T06:12:48;101456.97;;;10.02;33.32
80414;BME280;69758;52.580;13.068;2024-02-14T06:15:14;101457.94;;;10.00;33.31
80414;BME280;69758;52.580;13.068;2024-02-14T06:17:39;101458.63;;;10.25;33.32
80414;BME280;69758;52.580;13.068;2024-02-14T06:20:06;101463.26;;;10.21;33.35
80414;BME280;69758;52.580;13.068;2024-02-14T06:22:30;101457.18;;;10.22;33.38
80414;BME280;69758;52.580;13.068;2024-02-14T06:24:55;101456.31;;;10.02;33.39
80414;BME280;69758;52.580;13.068;2024-02-14T06:27:21;101458.40;;;10.33;33.36
80414;BME280;69758;52.580;13.068;2024-02-14T06:29:46;101456.34;;;10.37;33.36
80414;BME280;69758;52.580;13.068;2024-02-14T06:32:13;101454.79;;;10.13;33.35
80414;BME280;69758;52.580;13.068;2024-02-14T06:34:37;101452.91;;;10.41;33.36
80414;BME280;69758;52.580;13.068;2024-02-14T06:37:02;101444.41;;;10.40;33.35
80414;BME280;69758;52.580;13.068;2024-02-14T06:39:28;101438.00;;;10.66;33.37
80414;BME280;69758;52.580;13.068;2024-02-14T06:41:53;101438.20;;;10.16;33.44
80414;BME280;69758;52.580;13.068;2024-02-14T06:44:19;101438.99;;;10.19;33.45
80414;BME280;69758;52.580;13.068;2024-02-14T06:46:44;101427.96;;;10.21;33.44
80414;BME280;69758;52.580;13.068;2024-02-14T06:49:10;101422.00;;;10.22;33.42
80414;BME280;69758;52.580;13.068;2024-02-14T06:51:35;101424.84;;;10.13;33.52
80414;BME280;69758;52.580;13.068;2024-02-14T06:54:00;101423.62;;;10.42;33.76
80414;BME280;69758;52.580;13.068;2024-02-14T06:56:26;101427.23;;;9.99;33.76
80414;BME280;69758;52.580;13.068;2024-02-14T06:58:51;101432.97;;;10.25;33.82
80414;BME280;69758;52.580;13.068;2024-02-14T07:01:17;101426.70;;;10.30;33.82
80414;BME280;69758;52.580;13.068;2024-02-14T07:03:42;101431.37;;;10.06;33.83
80414;BME280;69758;52.580;13.068;2024-02-14T07:06:07;101435.76;;;10.36;33.80
80414;BME280;69758;52.580;13.068;2024-02-14T07:08:33;101437.68;;;10.21;33.71
80414;BME280;69758;52.580;13.068;2024-02-14T07:10:58;101436.86;;;10.08;33.64
80414;BME280;69758;52.580;13.068;2024-02-14T07:13:24;101438.48;;;10.42;33.54
80414;BME280;69758;52.580;13.068;2024-02-14T07:15:49;101441.21;;;10.51;33.48
80414;BME280;69758;52.580;13.068;2024-02-14T07:18:14;101452.17;;;10.57;33.44
80414;BME280;69758;52.580;13.068;2024-02-14T07:20:40;101454.94;;;10.36;33.43
80414;BME280;69758;52.580;13.068;2024-02-14T07:23:05;101466.45;;;10.56;33.54
80414;BME280;69758;52.580;13.068;2024-02-14T07:25:31;101465.63;;;10.60;33.55
80414;BME280;69758;52.580;13.068;2024-02-14T07:27:56;101472.49;;;10.66;33.52
80414;BME280;69758;52.580;13.068;2024-02-14T07:30:22;101475.45;;;10.69;33.55
80414;BME280;69758;52.580;13.068;2024-02-14T07:32:47;101475.27;;;10.75;33.49
80414;BME280;69758;52.580;13.068;2024-02-14T07:35:13;101476.38;;;10.57;33.44
80414;BME280;69758;52.580;13.068;2024-02-14T07:37:38;101475.60;;;10.47;33.55
80414;BME280;69758;52.580;13.068;2024-02-14T07:40:04;101472.26;;;10.35;33.43
80414;BME280;69758;52.580;13.068;2024-02-14T07:42:29;101471.02;;;10.86;33.44
80414;BME280;69758;52.580;13.068;2024-02-14T07:44:54;101466.57;;;10.43;33.45
80414;BME280;69758;52.580;13.068;2024-02-14T07:47:19;101458.44;;;10.71;33.41
80414;BME280;69758;52.580;13.068;2024-02-14T07:49:45;101452.76;;;10.77;33.38
80414;BME280;69758;52.580;13.068;2024-02-14T07:52:10;101449.13;;;10.94;33.21
80414;BME280;69758;52.580;13.068;2024-02-14T07:54:35;101446.98;;;10.47;33.24
80414;BME280;69758;52.580;13.068;2024-02-14T07:57:01;101435.71;;;10.98;33.31
80414;BME280;69758;52.580;13.068;2024-02-14T07:59:26;101434.77;;;10.85;33.34
80414;BME280;69758;52.580;13.068;2024-02-14T08:01:52;101437.81;;;10.88;33.33
80414;BME280;69758;52.580;13.068;2024-02-14T08:04:17;101437.09;;;10.92;33.40
80414;BME280;69758;52.580;13.068;2024-02-14T08:06:44;101440.47;;;11.02;33.43
80414;BME280;69758;52.580;13.068;2024-02-14T08:09:07;101443.99;;;11.06;33.47
80414;BME280;69758;52.580;13.068;2024-02-14T08:11:33;101445.75;;;11.35;33.47
80414;BME280;69758;52.580;13.068;2024-02-14T08:13:58;101441.09;;;11.15;33.52
80414;BME280;69758;52.580;13.068;2024-02-14T08:16:24;101438.16;;;11.22;33.54
80414;BME280;69758;52.580;13.068;2024-02-14T08:18:49;101434.91;;;11.31;33.55
80414;BME280;69758;52.580;13.068;2024-02-14T08:21:14;101431.74;;;11.61;33.61
80414;BME280;69758;52.580;13.068;2024-02-14T08:23:40;101432.66;;;11.22;33.66
80414;BME280;69758;52.580;13.068;2024-02-14T08:26:05;101440.16;;;11.56;33.66
80414;BME280;69758;52.580;13.068;2024-02-14T08:28:31;101433.58;;;11.61;33.68
80414;BME280;69758;52.580;13.068;2024-02-14T08:30:56;101431.07;;;11.64;33.74
80414;BME280;69758;52.580;13.068;2024-02-14T08:33:21;101430.90;;;11.57;33.96
80414;BME280;69758;52.580;13.068;2024-02-14T08:35:46;101427.62;;;11.42;34.02
80414;BME280;69758;52.580;13.068;2024-02-14T08:38:12;101430.35;;;11.74;34.02
80414;BME280;69758;52.580;13.068;2024-02-14T08:40:37;101431.69;;;11.33;34.05
80414;BME280;69758;52.580;13.068;2024-02-14T08:43:03;101434.16;;;11.54;34.13
80414;BME280;69758;52.580;13.068;2024-02-14T08:45:28;101431.18;;;11.76;34.29
80414;BME280;69758;52.580;13.068;2024-02-14T08:47:53;101431.23;;;11.64;34.27
80414;BME280;69758;52.580;13.068;2024-02-14T08:50:19;101432.06;;;11.67;34.34
80414;BME280;69758;52.580;13.068;2024-02-14T08:52:44;101429.70;;;11.97;34.37
80414;BME280;69758;52.580;13.068;2024-02-14T08:55:10;101434.99;;;11.54;34.68
80414;BME280;69758;52.580;13.068;2024-02-14T08:57:35;101436.11;;;11.94;34.63
80414;BME280;69758;52.580;13.068;2024-02-14T09:00:01;101433.19;;;11.78;34.57
80414;BME280;69758;52.580;13.068;2024-02-14T09:02:26;101432.62;;;11.82;34.55
80414;BME280;69758;52.580;13.068;2024-02-14T09:04:51;101434.49;;;11.57;34.67
80414;BME280;69758;52.580;13.068;2024-02-14T09:07:17;101434.80;;;11.94;34.85
80414;BME280;69758;52.580;13.068;2024-02-14T09:09:42;101434.32;;;11.40;35.07
80414;BME280;69758;52.580;13.068;2024-02-14T09:12:07;101434.83;;;11.66;35.20
80414;BME280;69758;52.580;13.068;2024-02-14T09:14:33;101429.51;;;11.36;35.36
80414;BME280;69758;52.580;13.068;2024-02-14T09:16:58;101429.76;;;11.91;35.35
80414;BME280;69758;52.580;13.068;2024-02-14T09:19:23;101431.37;;;11.93;35.43
80414;BME280;69758;52.580;13.068;2024-02-14T09:21:49;101432.49;;;11.72;35.48
80414;BME280;69758;52.580;13.068;2024-02-14T09:24:14;101432.35;;;12.03;35.42
80414;BME280;69758;52.580;13.068;2024-02-14T09:26:39;101433.20;;;11.57;35.52
80414;BME280;69758;52.580;13.068;2024-02-14T09:29:05;101434.05;;;11.94;35.38
80414;BME280;69758;52.580;13.068;2024-02-14T09:31:31;101431.19;;;11.76;35.33
80414;BME280;69758;52.580;13.068;2024-02-14T09:33:56;101434.74;;;12.02;35.39
80414;BME280;69758;52.580;13.068;2024-02-14T09:36:21;101436.69;;;12.01;35.55
80414;BME280;69758;52.580;13.068;2024-02-14T09:38:47;101430.51;;;11.94;35.69
80414;BME280;69758;52.580;13.068;2024-02-14T09:41:15;101430.79;;;11.98;35.68
80414;BME280;69758;52.580;13.068;2024-02-14T09:43:39;101430.00;;;11.79;35.72
80414;BME280;69758;52.580;13.068;2024-02-14T09:46:02;101434.50;;;12.07;35.77
80414;BME280;69758;52.580;13.068;2024-02-14T09:48:28;101431.51;;;12.41;35.77
80414;BME280;69758;52.580;13.068;2024-02-14T09:50:54;101430.15;;;12.19;35.90
80414;BME280;69758;52.580;13.068;2024-02-14T09:53:19;101427.03;;;12.00;35.94
80414;BME280;69758;52.580;13.068;2024-02-14T09:55:46;101425.87;;;12.28;35.99
80414;BME280;69758;52.580;13.068;2024-02-14T09:58:10;101424.22;;;12.05;36.06
80414;BME280;69758;52.580;13.068;2024-02-14T10:00:35;101419.83;;;12.18;35.99
80414;BME280;69758;52.580;13.068;2024-02-14T10:03:00;101422.37;;;12.52;35.98
80414;BME280;69758;52.580;13.068;2024-02-14T10:05:25;101421.43;;;12.21;36.21
80414;BME280;69758;52.580;13.068;2024-02-14T10:07:51;101415.31;;;12.34;36.50
80414;BME280;69758;52.580;13.068;2024-02-14T10:10:16;101415.22;;;12.42;36.47
80414;BME280;69758;52.580;13.068;2024-02-14T10:12:42;101412.65;;;12.22;36.52
80414;BME280;69758;52.580;13.068;2024-02-14T10:15:08;101414.84;;;12.29;36.62
80414;BME280;69758;52.580;13.068;2024-02-14T10:17:33;101413.68;;;11.84;36.67
80414;BME280;69758;52.580;13.068;2024-02-14T10:19:58;101413.47;;;12.49;36.48
80414;BME280;69758;52.580;13.068;2024-02-14T10:22:23;101407.41;;;12.61;36.38
80414;BME280;69758;52.580;13.068;2024-02-14T10:24:48;101407.29;;;12.24;36.62
80414;BME280;69758;52.580;13.068;2024-02-14T10:27:15;101405.67;;;12.52;36.65
80414;BME280;69758;52.580;13.068;2024-02-14T10:29:39;101407.24;;;12.43;36.56
80414;BME280;69758;52.580;13.068;2024-02-14T10:32:05;101405.58;;;12.84;36.39
80414;BME280;69758;52.580;13.068;2024-02-14T10:34:31;101405.01;;;12.54;36.89
80414;BME280;69758;52.580;13.068;2024-02-14T10:36:56;101400.36;;;12.66;37.17
80414;BME280;69758;52.580;13.068;2024-02-14T10:39:21;101404.62;;;12.76;37.18
80414;BME280;69758;52.580;13.068;2024-02-14T10:41:46;101404.80;;;12.14;37.49
80414;BME280;69758;52.580;13.068;2024-02-14T10:44:11;101406.13;;;12.36;37.68
80414;BME280;69758;52.580;13.068;2024-02-14T10:46:37;101408.12;;;12.01;38.37
80414;BME280;69758;52.580;13.068;2024-02-14T10:49:04;101402.69;;;12.04;38.11
80414;BME280;69758;52.580;13.068;2024-02-14T10:51:30;101395.41;;;12.21;37.86
80414;BME280;69758;52.580;13.068;2024-02-14T10:53:53;101398.86;;;12.48;37.84
80414;BME280;69758;52.580;13.068;2024-02-14T10:56:18;101399.79;;;12.69;37.61
80414;BME280;69758;52.580;13.068;2024-02-14T10:58:45;101397.38;;;12.50;37.60
80414;BME280;69758;52.580;13.068;2024-02-14T11:01:09;101395.80;;;12.76;37.65
80414;BME280;69758;52.580;13.068;2024-02-14T11:03:34;101393.05;;;12.35;37.63
80414;BME280;69758;52.580;13.068;2024-02-14T11:06:01;101396.04;;;12.65;37.63
80414;BME280;69758;52.580;13.068;2024-02-14T11:08:25;101393.75;;;12.94;37.61
80414;BME280;69758;52.580;13.068;2024-02-14T11:10:54;101388.70;;;13.05;37.49
80414;BME280;69758;52.580;13.068;2024-02-14T11:13:21;101391.82;;;13.16;37.38
80414;BME280;69758;52.580;13.068;2024-02-14T11:15:44;101388.52;;;13.36;37.24
80414;BME280;69758;52.580;13.068;2024-02-14T11:18:07;101384.11;;;12.48;37.82
80414;BME280;69758;52.580;13.068;2024-02-14T11:20:33;101386.15;;;12.65;37.75
80414;BME280;69758;52.580;13.068;2024-02-14T11:23:00;101384.50;;;13.10;37.82
80414;BME280;69758;52.580;13.068;2024-02-14T11:25:27;101380.07;;;13.02;37.97
80414;BME280;69758;52.580;13.068;2024-02-14T11:27:48;101384.72;;;13.21;37.82
80414;BME280;69758;52.580;13.068;2024-02-14T11:30:13;101386.30;;;13.04;38.09
80414;BME280;69758;52.580;13.068;2024-02-14T11:32:38;101381.62;;;12.70;37.96
80414;BME280;69758;52.580;13.068;2024-02-14T11:35:05;101384.97;;;13.05;37.82
80414;BME280;69758;52.580;13.068;2024-02-14T11:37:30;101386.11;;;12.99;38.21
80414;BME280;69758;52.580;13.068;2024-02-14T11:39:55;101382.67;;;13.10;38.19
80414;BME280;69758;52.580;13.068;2024-02-14T11:42:21;101385.47;;;13.08;38.03
80414;BME280;69758;52.580;13.068;2024-02-14T11:44:46;101378.16;;;13.25;37.85
80414;BME280;69758;52.580;13.068;2024-02-14T11:47:10;101383.64;;;12.88;38.10
80414;BME280;69758;52.580;13.068;2024-02-14T11:49:36;101382.39;;;13.01;37.98
80414;BME280;69758;52.580;13.068;2024-02-14T11:52:01;101376.68;;;13.52;37.93
80414;BME280;69758;52.580;13.068;2024-02-14T11:54:26;101379.23;;;13.36;37.91
80414;BME280;69758;52.580;13.068;2024-02-14T11:56:52;101382.83;;;13.14;38.21
80414;BME280;69758;52.580;13.068;2024-02-14T11:59:17;101384.78;;;13.40;38.31
80414;BME280;69758;52.580;13.068;2024-02-14T12:01:43;101376.41;;;13.02;38.20
80414;BME280;69758;52.580;13.068;2024-02-14T12:04:09;101381.02;;;13.59;38.13
80414;BME280;69758;52.580;13.068;2024-02-14T12:06:34;101381.50;;;13.20;38.14
80414;BME280;69758;52.580;13.068;2024-02-14T12:08:59;101380.59;;;13.31;38.06
80414;BME280;69758;52.580;13.068;2024-02-14T12:11:24;101379.82;;;13.74;37.89
80414;BME280;69758;52.580;13.068;2024-02-14T12:13:50;101376.24;;;13.70;38.03
80414;BME280;69758;52.580;13.068;2024-02-14T12:16:14;101375.05;;;13.50;38.07
80414;BME280;69758;52.580;13.068;2024-02-14T12:18:40;101380.14;;;13.60;37.98
80414;BME280;69758;52.580;13.068;2024-02-14T12:21:06;101382.46;;;13.65;38.03
80414;BME280;69758;52.580;13.068;2024-02-14T12:23:31;101381.84;;;13.71;38.03
80414;BME280;69758;52.580;13.068;2024-02-14T12:26:01;101378.09;;;13.75;37.99
80414;BME280;69758;52.580;13.068;2024-02-14T12:28:23;101381.61;;;13.69;38.04
80414;BME280;69758;52.580;13.068;2024-02-14T12:30:47;101379.02;;;13.63;38.30
80414;BME280;69758;52.580;13.068;2024-02-14T12:33:12;101382.11;;;13.76;38.21
80414;BME280;69758;52.580;13.068;2024-02-14T12:35:37;101378.63;;;13.76;38.25